PWSweather.com
Personal Weather Stations
Station Observations
WD4JKH
Forsyth, GA 31029

Forsyth, GA 31029

Lat: 33.033225, Lon: -83.927995

Elevation: 709

Station Type: Davis Vantage VUE

High Low Average
Temperature 75.9°F24.4°C 46.1°F7.8°C 61.6°F16.4°C
Dew Point 48.3°F9.1°C 39.6°F4.2°C 43.4°F6.3°C
Winds 6.0 mph 9.7 kmh Calm Calm 2.0 mph SE3.2 kmh SE
Wind Gusts 11.0 mph17.7 kmh -- 5.0 mph8.0 kmh
Humidity 80% 32% 54%
Pressure 30.30 in1026.1 mb 30.16 in1021.3 mb -
Precipitation 0.00 in0.0 mm - -
Hour Temp Dew Point Humidity Winds Wind Gusts Pressure Precip Precip Rate Daily Precip Total
12:04 AM 53.6°F12.0°C 41.0°F5.0°C 62% 2.4 mph NW3.9 kmh NW 7.0 mph11.3 kmh 30.17 in1021.7 mb 0.00 in0.0 mm 0.00 in0.0 mm 0.00 in0.0 mm
12:08 AM 53.6°F12.0°C 41.4°F5.2°C 63% 1.7 mph WNW2.7 kmh WNW 7.0 mph11.3 kmh 30.18 in1022.0 mb 0.00 in0.0 mm 0.00 in0.0 mm 0.00 in0.0 mm
12:14 AM 53.6°F12.0°C 41.4°F5.2°C 63% 2.2 mph NW3.5 kmh NW 7.0 mph11.3 kmh 30.18 in1022.0 mb 0.00 in0.0 mm 0.00 in0.0 mm 0.00 in0.0 mm
12:19 AM 53.6°F12.0°C 41.0°F5.0°C 62% 1.3 mph WNW2.1 kmh WNW 7.0 mph11.3 kmh 30.18 in1022.0 mb 0.00 in0.0 mm 0.00 in0.0 mm 0.00 in0.0 mm
12:24 AM 53.5°F11.9°C 41.2°F5.1°C 63% 1.8 mph NW2.9 kmh NW 6.0 mph9.7 kmh 30.17 in1021.7 mb 0.00 in0.0 mm 0.00 in0.0 mm 0.00 in0.0 mm
12:29 AM 53.6°F12.0°C 40.9°F4.9°C 62% 2.3 mph NNW3.7 kmh NNW 6.0 mph9.7 kmh 30.17 in1021.7 mb 0.00 in0.0 mm 0.00 in0.0 mm 0.00 in0.0 mm
12:34 AM 53.5°F11.9°C 40.9°F4.9°C 62% 1.8 mph NW2.9 kmh NW 6.0 mph9.7 kmh 30.17 in1021.7 mb 0.00 in0.0 mm 0.00 in0.0 mm 0.00 in0.0 mm
12:39 AM 53.6°F12.0°C 41.0°F5.0°C 62% 2.2 mph NW3.5 kmh NW 6.0 mph9.7 kmh 30.17 in1021.7 mb 0.00 in0.0 mm 0.00 in0.0 mm 0.00 in0.0 mm
12:44 AM 53.5°F11.9°C 41.3°F5.2°C 63% 2.6 mph NNW4.2 kmh NNW 6.0 mph9.7 kmh 30.18 in1022.0 mb 0.00 in0.0 mm 0.00 in0.0 mm 0.00 in0.0 mm
12:49 AM 53.3°F11.8°C 41.1°F5.1°C 63% 2.0 mph NNW3.2 kmh NNW 6.0 mph9.7 kmh 30.18 in1022.0 mb 0.00 in0.0 mm 0.00 in0.0 mm 0.00 in0.0 mm
12:54 AM 53.2°F11.8°C 41.0°F5.0°C 63% 2.3 mph NW3.7 kmh NW 6.0 mph9.7 kmh 30.18 in1022.0 mb 0.00 in0.0 mm 0.00 in0.0 mm 0.00 in0.0 mm
12:59 AM 53.2°F11.8°C 41.0°F5.0°C 63% 2.2 mph NNW3.5 kmh NNW 7.0 mph11.3 kmh 30.17 in1021.7 mb 0.00 in0.0 mm 0.00 in0.0 mm 0.00 in0.0 mm
01:04 AM 53.2°F11.8°C 41.0°F5.0°C 63% 2.4 mph NW3.9 kmh NW 7.0 mph11.3 kmh 30.17 in1021.7 mb 0.00 in0.0 mm 0.00 in0.0 mm 0.00 in0.0 mm
01:09 AM 53.3°F11.8°C 41.1°F5.1°C 63% 2.6 mph NNW4.2 kmh NNW 7.0 mph11.3 kmh 30.17 in1021.7 mb 0.00 in0.0 mm 0.00 in0.0 mm 0.00 in0.0 mm
01:14 AM 53.3°F11.8°C 41.1°F5.1°C 63% 1.5 mph NW2.4 kmh NW 7.0 mph11.3 kmh 30.18 in1022.0 mb 0.00 in0.0 mm 0.00 in0.0 mm 0.00 in0.0 mm
01:19 AM 53.3°F11.8°C 41.1°F5.1°C 63% 2.2 mph NW3.5 kmh NW 6.0 mph9.7 kmh 30.18 in1022.0 mb 0.00 in0.0 mm 0.00 in0.0 mm 0.00 in0.0 mm
01:24 AM 53.3°F11.8°C 40.7°F4.8°C 62% 2.3 mph NW3.7 kmh NW 7.0 mph11.3 kmh 30.17 in1021.7 mb 0.00 in0.0 mm 0.00 in0.0 mm 0.00 in0.0 mm
01:29 AM 53.3°F11.8°C 40.6°F4.8°C 62% 1.3 mph NW2.1 kmh NW 7.0 mph11.3 kmh 30.17 in1021.7 mb 0.00 in0.0 mm 0.00 in0.0 mm 0.00 in0.0 mm
01:34 AM 53.3°F11.8°C 40.2°F4.6°C 61% 3.5 mph NNW5.6 kmh NNW 9.0 mph14.5 kmh 30.18 in1022.0 mb 0.00 in0.0 mm 0.00 in0.0 mm 0.00 in0.0 mm
01:39 AM 53.6°F12.0°C 40.0°F4.4°C 60% 2.6 mph NW4.2 kmh NW 9.0 mph14.5 kmh 30.18 in1022.0 mb 0.00 in0.0 mm 0.00 in0.0 mm 0.00 in0.0 mm
01:44 AM 53.6°F12.0°C 40.0°F4.4°C 60% 1.7 mph NNW2.7 kmh NNW 9.0 mph14.5 kmh 30.17 in1021.7 mb 0.00 in0.0 mm 0.00 in0.0 mm 0.00 in0.0 mm
01:49 AM 53.3°F11.8°C 40.3°F4.6°C 61% 1.7 mph N2.7 kmh N 9.0 mph14.5 kmh 30.17 in1021.7 mb 0.00 in0.0 mm 0.00 in0.0 mm 0.00 in0.0 mm
01:54 AM 53.1°F11.7°C 40.1°F4.5°C 61% 1.8 mph NNW2.9 kmh NNW 8.0 mph12.9 kmh 30.17 in1021.7 mb 0.00 in0.0 mm 0.00 in0.0 mm 0.00 in0.0 mm
01:59 AM 52.9°F11.6°C 39.9°F4.4°C 61% 1.7 mph NNW2.7 kmh NNW 8.0 mph12.9 kmh 30.17 in1021.7 mb 0.00 in0.0 mm 0.00 in0.0 mm 0.00 in0.0 mm
02:03 AM 52.9°F11.6°C 40.3°F4.6°C 62% 2.0 mph NW3.2 kmh NW 5.0 mph8.0 kmh 30.17 in1021.7 mb 0.00 in0.0 mm 0.00 in0.0 mm 0.00 in0.0 mm
02:08 AM 52.8°F11.6°C 40.2°F4.6°C 62% 2.4 mph NW3.9 kmh NW 5.0 mph8.0 kmh 30.17 in1021.7 mb 0.00 in0.0 mm 0.00 in0.0 mm 0.00 in0.0 mm
02:13 AM 52.7°F11.5°C 40.2°F4.6°C 62% 1.6 mph N2.6 kmh N 5.0 mph8.0 kmh 30.17 in1021.7 mb 0.00 in0.0 mm 0.00 in0.0 mm 0.00 in0.0 mm
02:18 AM 52.6°F11.4°C 40.1°F4.5°C 62% 2.0 mph NW3.2 kmh NW 6.0 mph9.7 kmh 30.17 in1021.7 mb 0.00 in0.0 mm 0.00 in0.0 mm 0.00 in0.0 mm
02:23 AM 52.5°F11.4°C 40.0°F4.4°C 62% 2.2 mph N3.5 kmh N 6.0 mph9.7 kmh 30.17 in1021.7 mb 0.00 in0.0 mm 0.00 in0.0 mm 0.00 in0.0 mm
02:28 AM 52.4°F11.3°C 39.9°F4.4°C 62% 2.2 mph N3.5 kmh N 7.0 mph11.3 kmh 30.17 in1021.7 mb 0.00 in0.0 mm 0.00 in0.0 mm 0.00 in0.0 mm
02:33 AM 52.2°F11.2°C 40.1°F4.5°C 63% 1.6 mph NNW2.6 kmh NNW 7.0 mph11.3 kmh 30.17 in1021.7 mb 0.00 in0.0 mm 0.00 in0.0 mm 0.00 in0.0 mm
02:38 AM 52.1°F11.2°C 40.0°F4.4°C 63% 1.7 mph NW2.7 kmh NW 7.0 mph11.3 kmh 30.17 in1021.7 mb 0.00 in0.0 mm 0.00 in0.0 mm 0.00 in0.0 mm
02:43 AM 51.9°F11.1°C 39.7°F4.3°C 63% 2.4 mph NNW3.9 kmh NNW 7.0 mph11.3 kmh 30.17 in1021.7 mb 0.00 in0.0 mm 0.00 in0.0 mm 0.00 in0.0 mm
02:48 AM 51.9°F11.1°C 40.1°F4.5°C 64% 1.8 mph NW2.9 kmh NW 6.0 mph9.7 kmh 30.18 in1022.0 mb 0.00 in0.0 mm 0.00 in0.0 mm 0.00 in0.0 mm
02:53 AM 51.8°F11.0°C 39.7°F4.3°C 63% 2.0 mph NW3.2 kmh NW 6.0 mph9.7 kmh 30.17 in1021.7 mb 0.00 in0.0 mm 0.00 in0.0 mm 0.00 in0.0 mm
02:58 AM 51.8°F11.0°C 39.7°F4.3°C 63% 1.3 mph NE2.1 kmh NE 6.0 mph9.7 kmh 30.17 in1021.7 mb 0.00 in0.0 mm 0.00 in0.0 mm 0.00 in0.0 mm
03:03 AM 51.7°F10.9°C 39.6°F4.2°C 63% 1.7 mph NNW2.7 kmh NNW 5.0 mph8.0 kmh 30.17 in1021.7 mb 0.00 in0.0 mm 0.00 in0.0 mm 0.00 in0.0 mm
03:08 AM 51.6°F10.9°C 39.9°F4.4°C 64% 1.0 mph NW1.6 kmh NW 5.0 mph8.0 kmh 30.17 in1021.7 mb 0.00 in0.0 mm 0.00 in0.0 mm 0.00 in0.0 mm
03:13 AM 51.3°F10.7°C 40.0°F4.4°C 65% 1.6 mph N2.6 kmh N 5.0 mph8.0 kmh 30.17 in1021.7 mb 0.00 in0.0 mm 0.00 in0.0 mm 0.00 in0.0 mm
03:18 AM 51.0°F10.6°C 40.2°F4.6°C 66% 1.3 mph NE2.1 kmh NE 4.0 mph6.4 kmh 30.17 in1021.7 mb 0.00 in0.0 mm 0.00 in0.0 mm 0.00 in0.0 mm
03:23 AM 50.8°F10.4°C 40.3°F4.6°C 67% 2.2 mph NE3.5 kmh NE 5.0 mph8.0 kmh 30.17 in1021.7 mb 0.00 in0.0 mm 0.00 in0.0 mm 0.00 in0.0 mm
03:28 AM 50.6°F10.3°C 40.5°F4.7°C 68% Calm Calm 5.0 mph8.0 kmh 30.17 in1021.7 mb 0.00 in0.0 mm 0.00 in0.0 mm 0.00 in0.0 mm
03:33 AM 50.3°F10.2°C 40.6°F4.8°C 69% 1.1 mph NNE1.8 kmh NNE 5.0 mph8.0 kmh 30.18 in1022.0 mb 0.00 in0.0 mm 0.00 in0.0 mm 0.00 in0.0 mm
03:38 AM 50.0°F10.0°C 40.3°F4.6°C 69% 1.1 mph NE1.8 kmh NE 5.0 mph8.0 kmh 30.18 in1022.0 mb 0.00 in0.0 mm 0.00 in0.0 mm 0.00 in0.0 mm
03:43 AM 49.8°F9.9°C 40.4°F4.7°C 70% Calm Calm 2.0 mph3.2 kmh 30.18 in1022.0 mb 0.00 in0.0 mm 0.00 in0.0 mm 0.00 in0.0 mm
03:48 AM 49.5°F9.7°C 40.1°F4.5°C 70% 1.0 mph NE1.6 kmh NE 2.0 mph3.2 kmh 30.19 in1022.4 mb 0.00 in0.0 mm 0.00 in0.0 mm 0.00 in0.0 mm
03:53 AM 49.3°F9.6°C 40.4°F4.7°C 71% Calm Calm 2.0 mph3.2 kmh 30.19 in1022.4 mb 0.00 in0.0 mm 0.00 in0.0 mm 0.00 in0.0 mm
03:58 AM 49.1°F9.5°C 40.6°F4.8°C 72% 1.2 mph NE1.9 kmh NE 2.0 mph3.2 kmh 30.19 in1022.4 mb 0.00 in0.0 mm 0.00 in0.0 mm 0.00 in0.0 mm
04:03 AM 48.9°F9.4°C 40.7°F4.8°C 73% 1.0 mph NE1.6 kmh NE 2.0 mph3.2 kmh 30.20 in1022.7 mb 0.00 in0.0 mm 0.00 in0.0 mm 0.00 in0.0 mm
04:08 AM 48.6°F9.2°C 40.4°F4.7°C 73% 1.0 mph NE1.6 kmh NE 2.0 mph3.2 kmh 30.20 in1022.7 mb 0.00 in0.0 mm 0.00 in0.0 mm 0.00 in0.0 mm
04:13 AM 48.4°F9.1°C 40.2°F4.6°C 73% Calm Calm 2.0 mph3.2 kmh 30.20 in1022.7 mb 0.00 in0.0 mm 0.00 in0.0 mm 0.00 in0.0 mm
04:18 AM 48.2°F9.0°C 40.0°F4.4°C 73% Calm Calm 1.0 mph1.6 kmh 30.20 in1022.7 mb 0.00 in0.0 mm 0.00 in0.0 mm 0.00 in0.0 mm
04:23 AM 47.9°F8.8°C 40.1°F4.5°C 74% Calm Calm 1.0 mph1.6 kmh 30.21 in1023.0 mb 0.00 in0.0 mm 0.00 in0.0 mm 0.00 in0.0 mm
04:28 AM 47.7°F8.7°C 40.2°F4.6°C 75% Calm Calm 1.0 mph1.6 kmh 30.21 in1023.0 mb 0.00 in0.0 mm 0.00 in0.0 mm 0.00 in0.0 mm
04:33 AM 47.6°F8.7°C 40.1°F4.5°C 75% Calm Calm -- 30.21 in1023.0 mb 0.00 in0.0 mm 0.00 in0.0 mm 0.00 in0.0 mm
04:38 AM 47.4°F8.6°C 39.9°F4.4°C 75% Calm Calm -- 30.21 in1023.0 mb 0.00 in0.0 mm 0.00 in0.0 mm 0.00 in0.0 mm
04:43 AM 47.2°F8.4°C 40.1°F4.5°C 76% Calm Calm -- 30.21 in1023.0 mb 0.00 in0.0 mm 0.00 in0.0 mm 0.00 in0.0 mm
04:48 AM 47.0°F8.3°C 40.5°F4.7°C 78% Calm Calm -- 30.21 in1023.0 mb 0.00 in0.0 mm 0.00 in0.0 mm 0.00 in0.0 mm
04:53 AM 46.9°F8.3°C 40.7°F4.8°C 79% Calm Calm 1.0 mph1.6 kmh 30.20 in1022.7 mb 0.00 in0.0 mm 0.00 in0.0 mm 0.00 in0.0 mm
04:58 AM 46.9°F8.3°C 40.4°F4.7°C 78% Calm Calm 1.0 mph1.6 kmh 30.20 in1022.7 mb 0.00 in0.0 mm 0.00 in0.0 mm 0.00 in0.0 mm
05:03 AM 46.9°F8.3°C 40.1°F4.5°C 77% 1.0 mph NE1.6 kmh NE 1.0 mph1.6 kmh 30.20 in1022.7 mb 0.00 in0.0 mm 0.00 in0.0 mm 0.00 in0.0 mm
05:08 AM 47.1°F8.4°C 40.3°F4.6°C 77% 1.2 mph NE1.9 kmh NE 2.0 mph3.2 kmh 30.20 in1022.7 mb 0.00 in0.0 mm 0.00 in0.0 mm 0.00 in0.0 mm
05:13 AM 47.1°F8.4°C 40.3°F4.6°C 77% Calm Calm 2.0 mph3.2 kmh 30.20 in1022.7 mb 0.00 in0.0 mm 0.00 in0.0 mm 0.00 in0.0 mm
05:18 AM 47.1°F8.4°C 40.6°F4.8°C 78% Calm Calm 2.0 mph3.2 kmh 30.21 in1023.0 mb 0.00 in0.0 mm 0.00 in0.0 mm 0.00 in0.0 mm
05:23 AM 46.9°F8.3°C 40.4°F4.7°C 78% Calm Calm 2.0 mph3.2 kmh 30.21 in1023.0 mb 0.00 in0.0 mm 0.00 in0.0 mm 0.00 in0.0 mm
05:28 AM 46.7°F8.2°C 40.6°F4.8°C 79% Calm Calm 1.0 mph1.6 kmh 30.21 in1023.0 mb 0.00 in0.0 mm 0.00 in0.0 mm 0.00 in0.0 mm
05:33 AM 46.4°F8.0°C 40.6°F4.8°C 80% 1.3 mph NE2.1 kmh NE 2.0 mph3.2 kmh 30.21 in1023.0 mb 0.00 in0.0 mm 0.00 in0.0 mm 0.00 in0.0 mm
05:38 AM 46.3°F7.9°C 40.5°F4.7°C 80% 1.0 mph NNE1.6 kmh NNE 2.0 mph3.2 kmh 30.21 in1023.0 mb 0.00 in0.0 mm 0.00 in0.0 mm 0.00 in0.0 mm
05:43 AM 46.5°F8.1°C 40.4°F4.7°C 79% 1.6 mph NE2.6 kmh NE 3.0 mph4.8 kmh 30.21 in1023.0 mb 0.00 in0.0 mm 0.00 in0.0 mm 0.00 in0.0 mm
05:48 AM 46.6°F8.1°C 40.5°F4.7°C 79% 1.0 mph NNE1.6 kmh NNE 3.0 mph4.8 kmh 30.21 in1023.0 mb 0.00 in0.0 mm 0.00 in0.0 mm 0.00 in0.0 mm
05:53 AM 46.4°F8.0°C 40.6°F4.8°C 80% 1.1 mph NE1.8 kmh NE 3.0 mph4.8 kmh 30.22 in1023.4 mb 0.00 in0.0 mm 0.00 in0.0 mm 0.00 in0.0 mm
05:58 AM 46.3°F7.9°C 40.5°F4.7°C 80% 1.5 mph NE2.4 kmh NE 3.0 mph4.8 kmh 30.22 in1023.4 mb 0.00 in0.0 mm 0.00 in0.0 mm 0.00 in0.0 mm
06:03 AM 46.1°F7.8°C 40.3°F4.6°C 80% 1.7 mph NE2.7 kmh NE 3.0 mph4.8 kmh 30.22 in1023.4 mb 0.00 in0.0 mm 0.00 in0.0 mm 0.00 in0.0 mm
06:08 AM 46.2°F7.9°C 40.4°F4.7°C 80% 1.9 mph NE3.1 kmh NE 3.0 mph4.8 kmh 30.22 in1023.4 mb 0.00 in0.0 mm 0.00 in0.0 mm 0.00 in0.0 mm
06:13 AM 46.2°F7.9°C 40.4°F4.7°C 80% 3.0 mph NE4.8 kmh NE 4.0 mph6.4 kmh 30.22 in1023.4 mb 0.00 in0.0 mm 0.00 in0.0 mm 0.00 in0.0 mm
06:18 AM 46.4°F8.0°C 40.6°F4.8°C 80% 3.6 mph NE5.8 kmh NE 6.0 mph9.7 kmh 30.22 in1023.4 mb 0.00 in0.0 mm 0.00 in0.0 mm 0.00 in0.0 mm
06:23 AM 46.7°F8.2°C 40.6°F4.8°C 79% 2.3 mph NE3.7 kmh NE 6.0 mph9.7 kmh 30.23 in1023.7 mb 0.00 in0.0 mm 0.00 in0.0 mm 0.00 in0.0 mm
06:28 AM 47.0°F8.3°C 40.9°F4.9°C 79% 2.1 mph NE3.4 kmh NE 6.0 mph9.7 kmh 30.23 in1023.7 mb 0.00 in0.0 mm 0.00 in0.0 mm 0.00 in0.0 mm
06:33 AM 47.2°F8.4°C 41.1°F5.1°C 79% 2.0 mph NE3.2 kmh NE 6.0 mph9.7 kmh 30.23 in1023.7 mb 0.00 in0.0 mm 0.00 in0.0 mm 0.00 in0.0 mm
06:38 AM 47.5°F8.6°C 41.0°F5.0°C 78% 1.7 mph NE2.7 kmh NE 5.0 mph8.0 kmh 30.24 in1024.0 mb 0.00 in0.0 mm 0.00 in0.0 mm 0.00 in0.0 mm
06:43 AM 47.8°F8.8°C 41.3°F5.2°C 78% Calm Calm 5.0 mph8.0 kmh 30.24 in1024.0 mb 0.00 in0.0 mm 0.00 in0.0 mm 0.00 in0.0 mm
06:48 AM 48.0°F8.9°C 41.2°F5.1°C 77% 1.0 mph NE1.6 kmh NE 5.0 mph8.0 kmh 30.25 in1024.4 mb 0.00 in0.0 mm 0.00 in0.0 mm 0.00 in0.0 mm
06:53 AM 48.3°F9.1°C 41.8°F5.4°C 78% Calm Calm 4.0 mph6.4 kmh 30.25 in1024.4 mb 0.00 in0.0 mm 0.00 in0.0 mm 0.00 in0.0 mm
06:58 AM 48.8°F9.3°C 41.6°F5.3°C 76% Calm Calm 4.0 mph6.4 kmh 30.26 in1024.7 mb 0.00 in0.0 mm 0.00 in0.0 mm 0.00 in0.0 mm
07:02 AM 49.1°F9.5°C 41.5°F5.3°C 75% 1.5 mph NNE2.4 kmh NNE 3.0 mph4.8 kmh 30.26 in1024.7 mb 0.00 in0.0 mm 0.00 in0.0 mm 0.00 in0.0 mm
07:07 AM 49.2°F9.6°C 41.3°F5.2°C 74% 1.3 mph NE2.1 kmh NE 3.0 mph4.8 kmh 30.26 in1024.7 mb 0.00 in0.0 mm 0.00 in0.0 mm 0.00 in0.0 mm
07:12 AM 49.2°F9.6°C 41.0°F5.0°C 73% 2.7 mph NE4.3 kmh NE 4.0 mph6.4 kmh 30.26 in1024.7 mb 0.00 in0.0 mm 0.00 in0.0 mm 0.00 in0.0 mm
07:17 AM 49.1°F9.5°C 40.6°F4.8°C 72% 3.2 mph NE5.1 kmh NE 7.0 mph11.3 kmh 30.25 in1024.4 mb 0.00 in0.0 mm 0.00 in0.0 mm 0.00 in0.0 mm
07:22 AM 49.4°F9.7°C 41.2°F5.1°C 73% 1.8 mph NE2.9 kmh NE 7.0 mph11.3 kmh 30.26 in1024.7 mb 0.00 in0.0 mm 0.00 in0.0 mm 0.00 in0.0 mm
07:27 AM 49.5°F9.7°C 40.9°F4.9°C 72% 2.4 mph NE3.9 kmh NE 7.0 mph11.3 kmh 30.26 in1024.7 mb 0.00 in0.0 mm 0.00 in0.0 mm 0.00 in0.0 mm
07:32 AM 49.6°F9.8°C 41.0°F5.0°C 72% 3.9 mph NE6.3 kmh NE 7.0 mph11.3 kmh 30.26 in1024.7 mb 0.00 in0.0 mm 0.00 in0.0 mm 0.00 in0.0 mm
07:37 AM 50.0°F10.0°C 41.4°F5.2°C 72% 2.0 mph NE3.2 kmh NE 7.0 mph11.3 kmh 30.26 in1024.7 mb 0.00 in0.0 mm 0.00 in0.0 mm 0.00 in0.0 mm
07:42 AM 50.5°F10.3°C 41.2°F5.1°C 70% 2.6 mph NE4.2 kmh NE 7.0 mph11.3 kmh 30.27 in1025.1 mb 0.00 in0.0 mm 0.00 in0.0 mm 0.00 in0.0 mm
07:47 AM 51.1°F10.6°C 41.8°F5.4°C 70% 1.8 mph NE2.9 kmh NE 7.0 mph11.3 kmh 30.27 in1025.1 mb 0.00 in0.0 mm 0.00 in0.0 mm 0.00 in0.0 mm
07:52 AM 51.4°F10.8°C 41.7°F5.4°C 69% 2.4 mph NE3.9 kmh NE 7.0 mph11.3 kmh 30.27 in1025.1 mb 0.00 in0.0 mm 0.00 in0.0 mm 0.00 in0.0 mm
07:57 AM 51.8°F11.0°C 41.7°F5.4°C 68% 2.4 mph NE3.9 kmh NE 7.0 mph11.3 kmh 30.27 in1025.1 mb 0.00 in0.0 mm 0.00 in0.0 mm 0.00 in0.0 mm
08:02 AM 52.2°F11.2°C 41.7°F5.4°C 67% 2.2 mph NE3.5 kmh NE 6.0 mph9.7 kmh 30.28 in1025.4 mb 0.00 in0.0 mm 0.00 in0.0 mm 0.00 in0.0 mm
08:07 AM 52.9°F11.6°C 42.0°F5.6°C 66% 1.8 mph NE2.9 kmh NE 6.0 mph9.7 kmh 30.28 in1025.4 mb 0.00 in0.0 mm 0.00 in0.0 mm 0.00 in0.0 mm
08:12 AM 53.6°F12.0°C 41.3°F5.2°C 63% 3.4 mph ENE5.5 kmh ENE 6.0 mph9.7 kmh 30.28 in1025.4 mb 0.00 in0.0 mm 0.00 in0.0 mm 0.00 in0.0 mm
08:17 AM 54.1°F12.3°C 41.8°F5.4°C 63% 1.1 mph E1.8 kmh E 7.0 mph11.3 kmh 30.28 in1025.4 mb 0.00 in0.0 mm 0.00 in0.0 mm 0.00 in0.0 mm
08:22 AM 54.4°F12.4°C 41.6°F5.3°C 62% 3.0 mph E4.8 kmh E 7.0 mph11.3 kmh 30.28 in1025.4 mb 0.00 in0.0 mm 0.00 in0.0 mm 0.00 in0.0 mm
08:27 AM 54.7°F12.6°C 41.9°F5.5°C 62% 3.8 mph E6.1 kmh E 9.0 mph14.5 kmh 30.28 in1025.4 mb 0.00 in0.0 mm 0.00 in0.0 mm 0.00 in0.0 mm
08:32 AM 54.7°F12.6°C 41.5°F5.3°C 61% 3.4 mph E5.5 kmh E 9.0 mph14.5 kmh 30.28 in1025.4 mb 0.00 in0.0 mm 0.00 in0.0 mm 0.00 in0.0 mm
08:37 AM 55.4°F13.0°C 42.6°F5.9°C 62% 3.9 mph ENE6.3 kmh ENE 10.0 mph16.1 kmh 30.28 in1025.4 mb 0.00 in0.0 mm 0.00 in0.0 mm 0.00 in0.0 mm
08:42 AM 55.6°F13.1°C 41.5°F5.3°C 59% 4.9 mph E7.9 kmh E 10.0 mph16.1 kmh 30.28 in1025.4 mb 0.00 in0.0 mm 0.00 in0.0 mm 0.00 in0.0 mm
08:47 AM 55.9°F13.3°C 41.4°F5.2°C 58% 4.0 mph ENE6.4 kmh ENE 10.0 mph16.1 kmh 30.28 in1025.4 mb 0.00 in0.0 mm 0.00 in0.0 mm 0.00 in0.0 mm
08:52 AM 56.1°F13.4°C 41.2°F5.1°C 57% 4.0 mph E6.4 kmh E 10.0 mph16.1 kmh 30.28 in1025.4 mb 0.00 in0.0 mm 0.00 in0.0 mm 0.00 in0.0 mm
08:57 AM 56.6°F13.7°C 41.6°F5.3°C 57% 1.8 mph E2.9 kmh E 9.0 mph14.5 kmh 30.28 in1025.4 mb 0.00 in0.0 mm 0.00 in0.0 mm 0.00 in0.0 mm
09:02 AM 57.2°F14.0°C 40.8°F4.9°C 54% 5.2 mph E8.4 kmh E 9.0 mph14.5 kmh 30.29 in1025.7 mb 0.00 in0.0 mm 0.00 in0.0 mm 0.00 in0.0 mm
09:07 AM 57.0°F13.9°C 42.0°F5.6°C 57% 3.1 mph E5.0 kmh E 9.0 mph14.5 kmh 30.29 in1025.7 mb 0.00 in0.0 mm 0.00 in0.0 mm 0.00 in0.0 mm
09:12 AM 57.3°F14.1°C 41.8°F5.4°C 56% 3.8 mph E6.1 kmh E 9.0 mph14.5 kmh 30.29 in1025.7 mb 0.00 in0.0 mm 0.00 in0.0 mm 0.00 in0.0 mm
09:17 AM 57.5°F14.2°C 41.0°F5.0°C 54% 5.4 mph E8.7 kmh E 9.0 mph14.5 kmh 30.29 in1025.7 mb 0.00 in0.0 mm 0.00 in0.0 mm 0.00 in0.0 mm
09:22 AM 57.9°F14.4°C 42.4°F5.8°C 56% 3.5 mph SE5.6 kmh SE 9.0 mph14.5 kmh 30.28 in1025.4 mb 0.00 in0.0 mm 0.00 in0.0 mm 0.00 in0.0 mm
09:27 AM 58.3°F14.6°C 42.3°F5.7°C 55% 4.1 mph E6.6 kmh E 10.0 mph16.1 kmh 30.28 in1025.4 mb 0.00 in0.0 mm 0.00 in0.0 mm 0.00 in0.0 mm
09:32 AM 58.6°F14.8°C 42.6°F5.9°C 55% 4.3 mph E6.9 kmh E 10.0 mph16.1 kmh 30.28 in1025.4 mb 0.00 in0.0 mm 0.00 in0.0 mm 0.00 in0.0 mm
09:37 AM 59.2°F15.1°C 43.1°F6.2°C 55% 3.8 mph E6.1 kmh E 10.0 mph16.1 kmh 30.29 in1025.7 mb 0.00 in0.0 mm 0.00 in0.0 mm 0.00 in0.0 mm
09:42 AM 59.6°F15.3°C 43.5°F6.4°C 55% 2.2 mph E3.5 kmh E 10.0 mph16.1 kmh 30.29 in1025.7 mb 0.00 in0.0 mm 0.00 in0.0 mm 0.00 in0.0 mm
09:47 AM 59.6°F15.3°C 42.0°F5.6°C 52% 5.7 mph ESE9.2 kmh ESE 10.0 mph16.1 kmh 30.30 in1026.1 mb 0.00 in0.0 mm 0.00 in0.0 mm 0.00 in0.0 mm
09:52 AM 59.7°F15.4°C 43.1°F6.2°C 54% 3.2 mph SE5.1 kmh SE 10.0 mph16.1 kmh 30.29 in1025.7 mb 0.00 in0.0 mm 0.00 in0.0 mm 0.00 in0.0 mm
09:57 AM 60.1°F15.6°C 43.5°F6.4°C 54% 3.6 mph E5.8 kmh E 10.0 mph16.1 kmh 30.29 in1025.7 mb 0.00 in0.0 mm 0.00 in0.0 mm 0.00 in0.0 mm
10:02 AM 60.7°F15.9°C 43.9°F6.6°C 54% 3.3 mph E5.3 kmh E 10.0 mph16.1 kmh 30.29 in1025.7 mb 0.00 in0.0 mm 0.00 in0.0 mm 0.00 in0.0 mm
10:07 AM 61.1°F16.2°C 44.3°F6.8°C 54% 3.3 mph SE5.3 kmh SE 9.0 mph14.5 kmh 30.30 in1026.1 mb 0.00 in0.0 mm 0.00 in0.0 mm 0.00 in0.0 mm
10:12 AM 61.7°F16.5°C 43.4°F6.3°C 51% 3.5 mph ESE5.6 kmh ESE 9.0 mph14.5 kmh 30.30 in1026.1 mb 0.00 in0.0 mm 0.00 in0.0 mm 0.00 in0.0 mm
10:17 AM 61.6°F16.4°C 43.3°F6.3°C 51% 3.2 mph ESE5.1 kmh ESE 9.0 mph14.5 kmh 30.30 in1026.1 mb 0.00 in0.0 mm 0.00 in0.0 mm 0.00 in0.0 mm
10:22 AM 61.9°F16.6°C 43.0°F6.1°C 50% 6.0 mph E9.7 kmh E 11.0 mph17.7 kmh 30.30 in1026.1 mb 0.00 in0.0 mm 0.00 in0.0 mm 0.00 in0.0 mm
10:27 AM 61.9°F16.6°C 43.1°F6.2°C 50% 3.0 mph NE4.8 kmh NE 11.0 mph17.7 kmh 30.30 in1026.1 mb 0.00 in0.0 mm 0.00 in0.0 mm 0.00 in0.0 mm
10:32 AM 61.8°F16.6°C 41.9°F5.5°C 48% 2.7 mph E4.3 kmh E 11.0 mph17.7 kmh 30.30 in1026.1 mb 0.00 in0.0 mm 0.00 in0.0 mm 0.00 in0.0 mm
10:37 AM 62.8°F17.1°C 43.4°F6.3°C 49% 3.2 mph E5.1 kmh E 11.0 mph17.7 kmh 30.30 in1026.1 mb 0.00 in0.0 mm 0.00 in0.0 mm 0.00 in0.0 mm
10:42 AM 63.2°F17.3°C 43.7°F6.5°C 49% 2.2 mph E3.5 kmh E 9.0 mph14.5 kmh 30.30 in1026.1 mb 0.00 in0.0 mm 0.00 in0.0 mm 0.00 in0.0 mm
10:47 AM 63.6°F17.6°C 43.0°F6.1°C 47% 2.1 mph SE3.4 kmh SE 9.0 mph14.5 kmh 30.29 in1025.7 mb 0.00 in0.0 mm 0.00 in0.0 mm 0.00 in0.0 mm
10:52 AM 64.2°F17.9°C 42.4°F5.8°C 45% 4.5 mph SE7.2 kmh SE 8.0 mph12.9 kmh 30.29 in1025.7 mb 0.00 in0.0 mm 0.00 in0.0 mm 0.00 in0.0 mm
10:57 AM 64.4°F18.0°C 41.9°F5.5°C 44% 2.7 mph SE4.3 kmh SE 8.0 mph12.9 kmh 30.29 in1025.7 mb 0.00 in0.0 mm 0.00 in0.0 mm 0.00 in0.0 mm
11:02 AM 64.9°F18.3°C 43.0°F6.1°C 45% 2.6 mph E4.2 kmh E 8.0 mph12.9 kmh 30.28 in1025.4 mb 0.00 in0.0 mm 0.00 in0.0 mm 0.00 in0.0 mm
11:07 AM 65.2°F18.4°C 44.4°F6.9°C 47% 2.5 mph E4.0 kmh E 8.0 mph12.9 kmh 30.28 in1025.4 mb 0.00 in0.0 mm 0.00 in0.0 mm 0.00 in0.0 mm
11:12 AM 65.5°F18.6°C 42.3°F5.7°C 43% 3.4 mph ESE5.5 kmh ESE 8.0 mph12.9 kmh 30.28 in1025.4 mb 0.00 in0.0 mm 0.00 in0.0 mm 0.00 in0.0 mm
11:17 AM 65.6°F18.7°C 42.4°F5.8°C 43% 2.5 mph SE4.0 kmh SE 9.0 mph14.5 kmh 30.28 in1025.4 mb 0.00 in0.0 mm 0.00 in0.0 mm 0.00 in0.0 mm
11:22 AM 66.1°F18.9°C 42.9°F6.1°C 43% 3.1 mph SE5.0 kmh SE 9.0 mph14.5 kmh 30.28 in1025.4 mb 0.00 in0.0 mm 0.00 in0.0 mm 0.00 in0.0 mm
11:27 AM 66.2°F19.0°C 42.4°F5.8°C 42% 2.8 mph SE4.5 kmh SE 9.0 mph14.5 kmh 30.28 in1025.4 mb 0.00 in0.0 mm 0.00 in0.0 mm 0.00 in0.0 mm
11:32 AM 66.5°F19.2°C 42.1°F5.6°C 41% 3.8 mph SE6.1 kmh SE 9.0 mph14.5 kmh 30.28 in1025.4 mb 0.00 in0.0 mm 0.00 in0.0 mm 0.00 in0.0 mm
11:37 AM 66.9°F19.4°C 43.7°F6.5°C 43% 1.4 mph E2.3 kmh E 8.0 mph12.9 kmh 30.28 in1025.4 mb 0.00 in0.0 mm 0.00 in0.0 mm 0.00 in0.0 mm
11:42 AM 67.6°F19.8°C 43.6°F6.4°C 42% 3.7 mph SE6.0 kmh SE 8.0 mph12.9 kmh 30.28 in1025.4 mb 0.00 in0.0 mm 0.00 in0.0 mm 0.00 in0.0 mm
11:47 AM 67.2°F19.6°C 41.3°F5.2°C 39% 5.8 mph E9.3 kmh E 9.0 mph14.5 kmh 30.28 in1025.4 mb 0.00 in0.0 mm 0.00 in0.0 mm 0.00 in0.0 mm
11:52 AM 67.2°F19.6°C 42.6°F5.9°C 41% 3.3 mph SE5.3 kmh SE 10.0 mph16.1 kmh 30.28 in1025.4 mb 0.00 in0.0 mm 0.00 in0.0 mm 0.00 in0.0 mm
11:57 AM 67.4°F19.7°C 41.4°F5.2°C 39% 2.6 mph SE4.2 kmh SE 10.0 mph16.1 kmh 30.27 in1025.1 mb 0.00 in0.0 mm 0.00 in0.0 mm 0.00 in0.0 mm
12:01 PM 67.6°F19.8°C 41.6°F5.3°C 39% 2.2 mph ESE3.5 kmh ESE 10.0 mph16.1 kmh 30.27 in1025.1 mb 0.00 in0.0 mm 0.00 in0.0 mm 0.00 in0.0 mm
12:06 PM 67.4°F19.7°C 40.7°F4.8°C 38% 4.1 mph E6.6 kmh E 10.0 mph16.1 kmh 30.27 in1025.1 mb 0.00 in0.0 mm 0.00 in0.0 mm 0.00 in0.0 mm
12:11 PM 68.0°F20.0°C 43.3°F6.3°C 41% 2.4 mph S3.9 kmh S 9.0 mph14.5 kmh 30.27 in1025.1 mb 0.00 in0.0 mm 0.00 in0.0 mm 0.00 in0.0 mm
12:16 PM 69.0°F20.6°C 43.5°F6.4°C 40% 1.0 mph SW1.6 kmh SW 9.0 mph14.5 kmh 30.27 in1025.1 mb 0.00 in0.0 mm 0.00 in0.0 mm 0.00 in0.0 mm
12:21 PM 69.2°F20.7°C 41.8°F5.4°C 37% 2.4 mph SSE3.9 kmh SSE 7.0 mph11.3 kmh 30.26 in1024.7 mb 0.00 in0.0 mm 0.00 in0.0 mm 0.00 in0.0 mm
12:26 PM 68.7°F20.4°C 42.6°F5.9°C 39% 3.4 mph SW5.5 kmh SW 6.0 mph9.7 kmh 30.26 in1024.7 mb 0.00 in0.0 mm 0.00 in0.0 mm 0.00 in0.0 mm
12:31 PM 69.1°F20.6°C 43.0°F6.1°C 39% 2.5 mph S4.0 kmh S 7.0 mph11.3 kmh 30.26 in1024.7 mb 0.00 in0.0 mm 0.00 in0.0 mm 0.00 in0.0 mm
12:36 PM 69.5°F20.8°C 41.9°F5.5°C 37% 3.5 mph SE5.6 kmh SE 7.0 mph11.3 kmh 30.26 in1024.7 mb 0.00 in0.0 mm 0.00 in0.0 mm 0.00 in0.0 mm
12:41 PM 69.7°F20.9°C 42.8°F6.0°C 38% 1.0 mph SSE1.6 kmh SSE 7.0 mph11.3 kmh 30.26 in1024.7 mb 0.00 in0.0 mm 0.00 in0.0 mm 0.00 in0.0 mm
12:46 PM 70.2°F21.2°C 42.7°F5.9°C 37% 2.8 mph SE4.5 kmh SE 7.0 mph11.3 kmh 30.25 in1024.4 mb 0.00 in0.0 mm 0.00 in0.0 mm 0.00 in0.0 mm
12:51 PM 70.4°F21.3°C 43.6°F6.4°C 38% 1.8 mph SSW2.9 kmh SSW 7.0 mph11.3 kmh 30.25 in1024.4 mb 0.00 in0.0 mm 0.00 in0.0 mm 0.00 in0.0 mm
12:56 PM 70.7°F21.5°C 43.1°F6.2°C 37% 2.2 mph SSW3.5 kmh SSW 7.0 mph11.3 kmh 30.25 in1024.4 mb 0.00 in0.0 mm 0.00 in0.0 mm 0.00 in0.0 mm
01:01 PM 70.3°F21.3°C 42.6°F5.9°C 37% 2.4 mph S3.9 kmh S 7.0 mph11.3 kmh 30.25 in1024.4 mb 0.00 in0.0 mm 0.00 in0.0 mm 0.00 in0.0 mm
01:06 PM 70.5°F21.4°C 45.6°F7.6°C 41% 1.5 mph SSE2.4 kmh SSE 6.0 mph9.7 kmh 30.25 in1024.4 mb 0.00 in0.0 mm 0.00 in0.0 mm 0.00 in0.0 mm
01:11 PM 70.7°F21.5°C 44.4°F6.9°C 39% 1.8 mph SW2.9 kmh SW 5.0 mph8.0 kmh 30.25 in1024.4 mb 0.00 in0.0 mm 0.00 in0.0 mm 0.00 in0.0 mm
01:16 PM 71.2°F21.8°C 44.1°F6.7°C 38% 2.5 mph ESE4.0 kmh ESE 5.0 mph8.0 kmh 30.24 in1024.0 mb 0.00 in0.0 mm 0.00 in0.0 mm 0.00 in0.0 mm
01:21 PM 71.1°F21.7°C 45.4°F7.4°C 40% 1.4 mph ESE2.3 kmh ESE 6.0 mph9.7 kmh 30.24 in1024.0 mb 0.00 in0.0 mm 0.00 in0.0 mm 0.00 in0.0 mm
01:26 PM 71.5°F21.9°C 43.0°F6.1°C 36% 2.4 mph SSW3.9 kmh SSW 6.0 mph9.7 kmh 30.25 in1024.4 mb 0.00 in0.0 mm 0.00 in0.0 mm 0.00 in0.0 mm
01:31 PM 71.6°F22.0°C 43.9°F6.6°C 37% 2.1 mph S3.4 kmh S 6.0 mph9.7 kmh 30.24 in1024.0 mb 0.00 in0.0 mm 0.00 in0.0 mm 0.00 in0.0 mm
01:36 PM 71.9°F22.2°C 42.6°F5.9°C 35% 1.9 mph SE3.1 kmh SE 6.0 mph9.7 kmh 30.24 in1024.0 mb 0.00 in0.0 mm 0.00 in0.0 mm 0.00 in0.0 mm
01:41 PM 72.4°F22.4°C 45.2°F7.3°C 38% 1.9 mph SW3.1 kmh SW 6.0 mph9.7 kmh 30.24 in1024.0 mb 0.00 in0.0 mm 0.00 in0.0 mm 0.00 in0.0 mm
01:46 PM 72.3°F22.4°C 43.7°F6.5°C 36% 4.1 mph SW6.6 kmh SW 11.0 mph17.7 kmh 30.24 in1024.0 mb 0.00 in0.0 mm 0.00 in0.0 mm 0.00 in0.0 mm
01:51 PM 72.2°F22.3°C 42.9°F6.1°C 35% 2.4 mph SW3.9 kmh SW 11.0 mph17.7 kmh 30.24 in1024.0 mb 0.00 in0.0 mm 0.00 in0.0 mm 0.00 in0.0 mm
01:56 PM 72.2°F22.3°C 43.6°F6.4°C 36% 2.6 mph SE4.2 kmh SE 11.0 mph17.7 kmh 30.23 in1023.7 mb 0.00 in0.0 mm 0.00 in0.0 mm 0.00 in0.0 mm
02:01 PM 72.7°F22.6°C 43.3°F6.3°C 35% 1.4 mph S2.3 kmh S 11.0 mph17.7 kmh 30.23 in1023.7 mb 0.00 in0.0 mm 0.00 in0.0 mm 0.00 in0.0 mm
02:06 PM 72.9°F22.7°C 44.2°F6.8°C 36% 2.6 mph E4.2 kmh E 6.0 mph9.7 kmh 30.23 in1023.7 mb 0.00 in0.0 mm 0.00 in0.0 mm 0.00 in0.0 mm
02:11 PM 72.8°F22.7°C 43.5°F6.4°C 35% 3.5 mph SE5.6 kmh SE 8.0 mph12.9 kmh 30.23 in1023.7 mb 0.00 in0.0 mm 0.00 in0.0 mm 0.00 in0.0 mm
02:16 PM 72.9°F22.7°C 45.7°F7.6°C 38% 3.0 mph E4.8 kmh E 8.0 mph12.9 kmh 30.23 in1023.7 mb 0.00 in0.0 mm 0.00 in0.0 mm 0.00 in0.0 mm
02:21 PM 72.7°F22.6°C 44.8°F7.1°C 37% 2.3 mph SE3.7 kmh SE 9.0 mph14.5 kmh 30.23 in1023.7 mb 0.00 in0.0 mm 0.00 in0.0 mm 0.00 in0.0 mm
02:26 PM 73.6°F23.1°C 44.8°F7.1°C 36% 1.1 mph ESE1.8 kmh ESE 9.0 mph14.5 kmh 30.22 in1023.4 mb 0.00 in0.0 mm 0.00 in0.0 mm 0.00 in0.0 mm
02:31 PM 74.1°F23.4°C 45.3°F7.4°C 36% 1.0 mph SW1.6 kmh SW 9.0 mph14.5 kmh 30.22 in1023.4 mb 0.00 in0.0 mm 0.00 in0.0 mm 0.00 in0.0 mm
02:36 PM 74.1°F23.4°C 43.8°F6.6°C 34% 2.2 mph SSW3.5 kmh SSW 9.0 mph14.5 kmh 30.22 in1023.4 mb 0.00 in0.0 mm 0.00 in0.0 mm 0.00 in0.0 mm
02:41 PM 74.0°F23.3°C 45.9°F7.7°C 37% Calm Calm 5.0 mph8.0 kmh 30.21 in1023.0 mb 0.00 in0.0 mm 0.00 in0.0 mm 0.00 in0.0 mm
02:46 PM 74.0°F23.3°C 44.4°F6.9°C 35% 4.4 mph ESE7.1 kmh ESE 7.0 mph11.3 kmh 30.21 in1023.0 mb 0.00 in0.0 mm 0.00 in0.0 mm 0.00 in0.0 mm
02:51 PM 73.8°F23.2°C 44.4°F6.9°C 35% 2.6 mph SE4.2 kmh SE 7.0 mph11.3 kmh 30.21 in1023.0 mb 0.00 in0.0 mm 0.00 in0.0 mm 0.00 in0.0 mm
02:56 PM 73.6°F23.1°C 43.5°F6.4°C 34% 1.6 mph SE2.6 kmh SE 8.0 mph12.9 kmh 30.20 in1022.7 mb 0.00 in0.0 mm 0.00 in0.0 mm 0.00 in0.0 mm
03:01 PM 73.7°F23.2°C 44.2°F6.8°C 35% 3.4 mph SE5.5 kmh SE 8.0 mph12.9 kmh 30.20 in1022.7 mb 0.00 in0.0 mm 0.00 in0.0 mm 0.00 in0.0 mm
03:06 PM 73.1°F22.8°C 43.6°F6.4°C 35% 4.2 mph E6.8 kmh E 8.0 mph12.9 kmh 30.20 in1022.7 mb 0.00 in0.0 mm 0.00 in0.0 mm 0.00 in0.0 mm
03:11 PM 73.1°F22.8°C 43.6°F6.4°C 35% 2.2 mph E3.5 kmh E 8.0 mph12.9 kmh 30.19 in1022.4 mb 0.00 in0.0 mm 0.00 in0.0 mm 0.00 in0.0 mm
03:16 PM 73.4°F23.0°C 45.4°F7.4°C 37% 2.3 mph E3.7 kmh E 8.0 mph12.9 kmh 30.19 in1022.4 mb 0.00 in0.0 mm 0.00 in0.0 mm 0.00 in0.0 mm
03:21 PM 73.3°F22.9°C 43.8°F6.6°C 35% 4.0 mph ENE6.4 kmh ENE 8.0 mph12.9 kmh 30.19 in1022.4 mb 0.00 in0.0 mm 0.00 in0.0 mm 0.00 in0.0 mm
03:26 PM 73.0°F22.8°C 43.6°F6.4°C 35% Calm Calm 8.0 mph12.9 kmh 30.19 in1022.4 mb 0.00 in0.0 mm 0.00 in0.0 mm 0.00 in0.0 mm
03:31 PM 73.3°F22.9°C 44.6°F7.0°C 36% 2.5 mph ENE4.0 kmh ENE 8.0 mph12.9 kmh 30.19 in1022.4 mb 0.00 in0.0 mm 0.00 in0.0 mm 0.00 in0.0 mm
03:36 PM 73.7°F23.2°C 45.1°F7.3°C 36% 1.7 mph SE2.7 kmh SE 7.0 mph11.3 kmh 30.19 in1022.4 mb 0.00 in0.0 mm 0.00 in0.0 mm 0.00 in0.0 mm
03:41 PM 73.9°F23.3°C 44.5°F6.9°C 35% 1.7 mph E2.7 kmh E 7.0 mph11.3 kmh 30.19 in1022.4 mb 0.00 in0.0 mm 0.00 in0.0 mm 0.00 in0.0 mm
03:46 PM 73.9°F23.3°C 43.8°F6.6°C 34% 3.6 mph E5.8 kmh E 7.0 mph11.3 kmh 30.19 in1022.4 mb 0.00 in0.0 mm 0.00 in0.0 mm 0.00 in0.0 mm
03:51 PM 73.6°F23.1°C 44.1°F6.7°C 35% 1.4 mph E2.3 kmh E 7.0 mph11.3 kmh 30.19 in1022.4 mb 0.00 in0.0 mm 0.00 in0.0 mm 0.00 in0.0 mm
03:56 PM 73.8°F23.2°C 43.5°F6.4°C 34% 3.6 mph E5.8 kmh E 7.0 mph11.3 kmh 30.18 in1022.0 mb 0.00 in0.0 mm 0.00 in0.0 mm 0.00 in0.0 mm
04:01 PM 73.8°F23.2°C 45.0°F7.2°C 36% 2.0 mph ESE3.2 kmh ESE 7.0 mph11.3 kmh 30.18 in1022.0 mb 0.00 in0.0 mm 0.00 in0.0 mm 0.00 in0.0 mm
04:06 PM 74.3°F23.5°C 45.5°F7.5°C 36% 1.3 mph SE2.1 kmh SE 7.0 mph11.3 kmh 30.18 in1022.0 mb 0.00 in0.0 mm 0.00 in0.0 mm 0.00 in0.0 mm
04:11 PM 75.1°F23.9°C 43.1°F6.2°C 32% 1.3 mph SW2.1 kmh SW 7.0 mph11.3 kmh 30.19 in1022.4 mb 0.00 in0.0 mm 0.00 in0.0 mm 0.00 in0.0 mm
04:16 PM 75.2°F24.0°C 44.7°F7.1°C 34% 2.3 mph E3.7 kmh E 5.0 mph8.0 kmh 30.18 in1022.0 mb 0.00 in0.0 mm 0.00 in0.0 mm 0.00 in0.0 mm
04:21 PM 75.5°F24.2°C 45.0°F7.2°C 34% 1.0 mph SW1.6 kmh SW 4.0 mph6.4 kmh 30.18 in1022.0 mb 0.00 in0.0 mm 0.00 in0.0 mm 0.00 in0.0 mm
04:26 PM 75.4°F24.1°C 44.1°F6.7°C 33% 1.8 mph SE2.9 kmh SE 4.0 mph6.4 kmh 30.18 in1022.0 mb 0.00 in0.0 mm 0.00 in0.0 mm 0.00 in0.0 mm
04:31 PM 75.7°F24.3°C 45.2°F7.3°C 34% Calm Calm 4.0 mph6.4 kmh 30.18 in1022.0 mb 0.00 in0.0 mm 0.00 in0.0 mm 0.00 in0.0 mm
04:36 PM 75.9°F24.4°C 44.6°F7.0°C 33% 1.0 mph ESE1.6 kmh ESE 4.0 mph6.4 kmh 30.18 in1022.0 mb 0.00 in0.0 mm 0.00 in0.0 mm 0.00 in0.0 mm
04:41 PM 75.5°F24.2°C 45.2°F7.3°C 34% 1.8 mph ESE2.9 kmh ESE 4.0 mph6.4 kmh 30.18 in1022.0 mb 0.00 in0.0 mm 0.00 in0.0 mm 0.00 in0.0 mm
04:46 PM 74.9°F23.8°C 44.5°F6.9°C 34% 1.2 mph ENE1.9 kmh ENE 5.0 mph8.0 kmh 30.18 in1022.0 mb 0.00 in0.0 mm 0.00 in0.0 mm 0.00 in0.0 mm
04:51 PM 74.6°F23.7°C 44.2°F6.8°C 34% 2.5 mph SE4.0 kmh SE 5.0 mph8.0 kmh 30.17 in1021.7 mb 0.00 in0.0 mm 0.00 in0.0 mm 0.00 in0.0 mm
04:56 PM 74.5°F23.6°C 44.1°F6.7°C 34% 1.9 mph ESE3.1 kmh ESE 5.0 mph8.0 kmh 30.17 in1021.7 mb 0.00 in0.0 mm 0.00 in0.0 mm 0.00 in0.0 mm
05:00 PM 74.5°F23.6°C 43.3°F6.3°C 33% 1.3 mph E2.1 kmh E 5.0 mph8.0 kmh 30.17 in1021.7 mb 0.00 in0.0 mm 0.00 in0.0 mm 0.00 in0.0 mm
05:05 PM 74.6°F23.7°C 45.0°F7.2°C 35% 1.8 mph ESE2.9 kmh ESE 5.0 mph8.0 kmh 30.17 in1021.7 mb 0.00 in0.0 mm 0.00 in0.0 mm 0.00 in0.0 mm
05:10 PM 74.9°F23.8°C 46.0°F7.8°C 36% 1.1 mph SSE1.8 kmh SSE 5.0 mph8.0 kmh 30.17 in1021.7 mb 0.00 in0.0 mm 0.00 in0.0 mm 0.00 in0.0 mm
05:15 PM 75.7°F24.3°C 45.2°F7.3°C 34% 1.4 mph SSW2.3 kmh SSW 5.0 mph8.0 kmh 30.18 in1022.0 mb 0.00 in0.0 mm 0.00 in0.0 mm 0.00 in0.0 mm
05:20 PM 75.9°F24.4°C 46.9°F8.3°C 36% 1.9 mph SE3.1 kmh SE 5.0 mph8.0 kmh 30.18 in1022.0 mb 0.00 in0.0 mm 0.00 in0.0 mm 0.00 in0.0 mm
05:25 PM 75.2°F24.0°C 46.3°F7.9°C 36% 1.5 mph ESE2.4 kmh ESE 5.0 mph8.0 kmh 30.17 in1021.7 mb 0.00 in0.0 mm 0.00 in0.0 mm 0.00 in0.0 mm
05:30 PM 75.6°F24.2°C 45.9°F7.7°C 35% 1.0 mph SW1.6 kmh SW 4.0 mph6.4 kmh 30.17 in1021.7 mb 0.00 in0.0 mm 0.00 in0.0 mm 0.00 in0.0 mm
05:35 PM 75.0°F23.9°C 45.3°F7.4°C 35% 1.1 mph E1.8 kmh E 4.0 mph6.4 kmh 30.17 in1021.7 mb 0.00 in0.0 mm 0.00 in0.0 mm 0.00 in0.0 mm
05:40 PM 74.7°F23.7°C 45.8°F7.7°C 36% 1.4 mph SSE2.3 kmh SSE 4.0 mph6.4 kmh 30.17 in1021.7 mb 0.00 in0.0 mm 0.00 in0.0 mm 0.00 in0.0 mm
05:45 PM 74.8°F23.8°C 45.3°F7.4°C 35% 2.5 mph ESE4.0 kmh ESE 4.0 mph6.4 kmh 30.17 in1021.7 mb 0.00 in0.0 mm 0.00 in0.0 mm 0.00 in0.0 mm
05:50 PM 74.8°F23.8°C 46.8°F8.2°C 37% 1.2 mph SSE1.9 kmh SSE 4.0 mph6.4 kmh 30.16 in1021.3 mb 0.00 in0.0 mm 0.00 in0.0 mm 0.00 in0.0 mm
05:55 PM 75.1°F23.9°C 45.6°F7.6°C 35% 1.8 mph E2.9 kmh E 4.0 mph6.4 kmh 30.16 in1021.3 mb 0.00 in0.0 mm 0.00 in0.0 mm 0.00 in0.0 mm
06:00 PM 74.8°F23.8°C 47.5°F8.6°C 38% 1.2 mph S1.9 kmh S 4.0 mph6.4 kmh 30.16 in1021.3 mb 0.00 in0.0 mm 0.00 in0.0 mm 0.00 in0.0 mm
06:05 PM 75.2°F24.0°C 47.1°F8.4°C 37% 1.8 mph S2.9 kmh S 4.0 mph6.4 kmh 30.16 in1021.3 mb 0.00 in0.0 mm 0.00 in0.0 mm 0.00 in0.0 mm
06:10 PM 75.0°F23.9°C 45.5°F7.5°C 35% 1.7 mph SE2.7 kmh SE 4.0 mph6.4 kmh 30.16 in1021.3 mb 0.00 in0.0 mm 0.00 in0.0 mm 0.00 in0.0 mm
06:16 PM 74.6°F23.7°C 45.7°F7.6°C 36% 1.0 mph SE1.6 kmh SE 4.0 mph6.4 kmh 30.16 in1021.3 mb 0.00 in0.0 mm 0.00 in0.0 mm 0.00 in0.0 mm
06:20 PM 74.6°F23.7°C 46.5°F8.1°C 37% 1.2 mph S1.9 kmh S 4.0 mph6.4 kmh 30.16 in1021.3 mb 0.00 in0.0 mm 0.00 in0.0 mm 0.00 in0.0 mm
06:26 PM 74.9°F23.8°C 47.5°F8.6°C 38% 1.0 mph ESE1.6 kmh ESE 3.0 mph4.8 kmh 30.16 in1021.3 mb 0.00 in0.0 mm 0.00 in0.0 mm 0.00 in0.0 mm
06:31 PM 74.8°F23.8°C 46.6°F8.1°C 37% 1.7 mph SE2.7 kmh SE 3.0 mph4.8 kmh 30.16 in1021.3 mb 0.00 in0.0 mm 0.00 in0.0 mm 0.00 in0.0 mm
06:36 PM 74.7°F23.7°C 47.3°F8.5°C 38% 1.4 mph SE2.3 kmh SE 3.0 mph4.8 kmh 30.16 in1021.3 mb 0.00 in0.0 mm 0.00 in0.0 mm 0.00 in0.0 mm
06:41 PM 74.4°F23.6°C 47.7°F8.7°C 39% Calm Calm 3.0 mph4.8 kmh 30.16 in1021.3 mb 0.00 in0.0 mm 0.00 in0.0 mm 0.00 in0.0 mm
06:46 PM 73.6°F23.1°C 47.0°F8.3°C 39% Calm Calm 3.0 mph4.8 kmh 30.16 in1021.3 mb 0.00 in0.0 mm 0.00 in0.0 mm 0.00 in0.0 mm
06:51 PM 72.9°F22.7°C 47.7°F8.7°C 41% Calm Calm 3.0 mph4.8 kmh 30.16 in1021.3 mb 0.00 in0.0 mm 0.00 in0.0 mm 0.00 in0.0 mm
06:56 PM 72.3°F22.4°C 47.8°F8.8°C 42% Calm Calm 1.0 mph1.6 kmh 30.16 in1021.3 mb 0.00 in0.0 mm 0.00 in0.0 mm 0.00 in0.0 mm
07:01 PM 71.4°F21.9°C 47.7°F8.7°C 43% Calm Calm 1.0 mph1.6 kmh 30.16 in1021.3 mb 0.00 in0.0 mm 0.00 in0.0 mm 0.00 in0.0 mm
07:06 PM 70.6°F21.4°C 47.6°F8.7°C 44% Calm Calm -- 30.16 in1021.3 mb 0.00 in0.0 mm 0.00 in0.0 mm 0.00 in0.0 mm
07:11 PM 69.8°F21.0°C 47.5°F8.6°C 45% Calm Calm -- 30.17 in1021.7 mb 0.00 in0.0 mm 0.00 in0.0 mm 0.00 in0.0 mm
07:16 PM 69.0°F20.6°C 47.3°F8.5°C 46% Calm Calm -- 30.16 in1021.3 mb 0.00 in0.0 mm 0.00 in0.0 mm 0.00 in0.0 mm
07:21 PM 68.3°F20.2°C 47.3°F8.5°C 47% Calm Calm -- 30.17 in1021.7 mb 0.00 in0.0 mm 0.00 in0.0 mm 0.00 in0.0 mm
07:26 PM 67.7°F19.8°C 47.9°F8.8°C 49% Calm Calm -- 30.17 in1021.7 mb 0.00 in0.0 mm 0.00 in0.0 mm 0.00 in0.0 mm
07:31 PM 67.1°F19.5°C 47.3°F8.5°C 49% Calm Calm -- 30.17 in1021.7 mb 0.00 in0.0 mm 0.00 in0.0 mm 0.00 in0.0 mm
07:36 PM 66.6°F19.2°C 47.4°F8.6°C 50% Calm Calm -- 30.17 in1021.7 mb 0.00 in0.0 mm 0.00 in0.0 mm 0.00 in0.0 mm
07:41 PM 66.4°F19.1°C 47.2°F8.4°C 50% Calm Calm -- 30.17 in1021.7 mb 0.00 in0.0 mm 0.00 in0.0 mm 0.00 in0.0 mm
07:46 PM 66.2°F19.0°C 47.0°F8.3°C 50% Calm Calm -- 30.17 in1021.7 mb 0.00 in0.0 mm 0.00 in0.0 mm 0.00 in0.0 mm
07:51 PM 66.0°F18.9°C 46.9°F8.3°C 50% 1.0 mph SE1.6 kmh SE 1.0 mph1.6 kmh 30.17 in1021.7 mb 0.00 in0.0 mm 0.00 in0.0 mm 0.00 in0.0 mm
07:56 PM 65.9°F18.8°C 46.2°F7.9°C 49% 2.0 mph SE3.2 kmh SE 3.0 mph4.8 kmh 30.17 in1021.7 mb 0.00 in0.0 mm 0.00 in0.0 mm 0.00 in0.0 mm
08:01 PM 65.9°F18.8°C 46.8°F8.2°C 50% Calm Calm 3.0 mph4.8 kmh 30.17 in1021.7 mb 0.00 in0.0 mm 0.00 in0.0 mm 0.00 in0.0 mm
08:06 PM 65.8°F18.8°C 46.7°F8.2°C 50% Calm Calm 3.0 mph4.8 kmh 30.17 in1021.7 mb 0.00 in0.0 mm 0.00 in0.0 mm 0.00 in0.0 mm
08:11 PM 65.8°F18.8°C 46.7°F8.2°C 50% Calm Calm 3.0 mph4.8 kmh 30.17 in1021.7 mb 0.00 in0.0 mm 0.00 in0.0 mm 0.00 in0.0 mm
08:16 PM 65.7°F18.7°C 46.0°F7.8°C 49% 1.0 mph SE1.6 kmh SE 1.0 mph1.6 kmh 30.17 in1021.7 mb 0.00 in0.0 mm 0.00 in0.0 mm 0.00 in0.0 mm
08:21 PM 65.5°F18.6°C 46.4°F8.0°C 50% Calm Calm 1.0 mph1.6 kmh 30.17 in1021.7 mb 0.00 in0.0 mm 0.00 in0.0 mm 0.00 in0.0 mm
08:26 PM 65.2°F18.4°C 46.7°F8.2°C 51% Calm Calm 1.0 mph1.6 kmh 30.17 in1021.7 mb 0.00 in0.0 mm 0.00 in0.0 mm 0.00 in0.0 mm
08:31 PM 65.1°F18.4°C 46.6°F8.1°C 51% 1.0 mph SE1.6 kmh SE 1.0 mph1.6 kmh 30.17 in1021.7 mb 0.00 in0.0 mm 0.00 in0.0 mm 0.00 in0.0 mm
08:36 PM 65.1°F18.4°C 46.6°F8.1°C 51% Calm Calm 1.0 mph1.6 kmh 30.17 in1021.7 mb 0.00 in0.0 mm 0.00 in0.0 mm 0.00 in0.0 mm
08:41 PM 64.9°F18.3°C 46.4°F8.0°C 51% Calm Calm 1.0 mph1.6 kmh 30.17 in1021.7 mb 0.00 in0.0 mm 0.00 in0.0 mm 0.00 in0.0 mm
08:46 PM 64.7°F18.2°C 46.7°F8.2°C 52% Calm Calm 1.0 mph1.6 kmh 30.17 in1021.7 mb 0.00 in0.0 mm 0.00 in0.0 mm 0.00 in0.0 mm
08:51 PM 64.6°F18.1°C 46.6°F8.1°C 52% Calm Calm 1.0 mph1.6 kmh 30.18 in1022.0 mb 0.00 in0.0 mm 0.00 in0.0 mm 0.00 in0.0 mm
08:56 PM 64.7°F18.2°C 47.2°F8.4°C 53% Calm Calm 1.0 mph1.6 kmh 30.18 in1022.0 mb 0.00 in0.0 mm 0.00 in0.0 mm 0.00 in0.0 mm
09:01 PM 64.5°F18.1°C 47.1°F8.4°C 53% Calm Calm 1.0 mph1.6 kmh 30.18 in1022.0 mb 0.00 in0.0 mm 0.00 in0.0 mm 0.00 in0.0 mm
09:06 PM 64.4°F18.0°C 47.0°F8.3°C 53% Calm Calm 1.0 mph1.6 kmh 30.18 in1022.0 mb 0.00 in0.0 mm 0.00 in0.0 mm 0.00 in0.0 mm
09:11 PM 64.2°F17.9°C 46.8°F8.2°C 53% Calm Calm 1.0 mph1.6 kmh 30.18 in1022.0 mb 0.00 in0.0 mm 0.00 in0.0 mm 0.00 in0.0 mm
09:16 PM 64.2°F17.9°C 47.8°F8.8°C 55% 1.3 mph SW2.1 kmh SW 2.0 mph3.2 kmh 30.18 in1022.0 mb 0.00 in0.0 mm 0.00 in0.0 mm 0.00 in0.0 mm
09:21 PM 63.9°F17.7°C 48.0°F8.9°C 56% 1.0 mph SW1.6 kmh SW 2.0 mph3.2 kmh 30.18 in1022.0 mb 0.00 in0.0 mm 0.00 in0.0 mm 0.00 in0.0 mm
09:26 PM 63.7°F17.6°C 47.8°F8.8°C 56% Calm Calm 2.0 mph3.2 kmh 30.18 in1022.0 mb 0.00 in0.0 mm 0.00 in0.0 mm 0.00 in0.0 mm
09:31 PM 63.7°F17.6°C 48.3°F9.1°C 57% Calm Calm 2.0 mph3.2 kmh 30.18 in1022.0 mb 0.00 in0.0 mm 0.00 in0.0 mm 0.00 in0.0 mm
09:36 PM 63.5°F17.5°C 47.6°F8.7°C 56% Calm Calm 1.0 mph1.6 kmh 30.18 in1022.0 mb 0.00 in0.0 mm 0.00 in0.0 mm 0.00 in0.0 mm
09:41 PM 63.4°F17.4°C 47.5°F8.6°C 56% Calm Calm 1.0 mph1.6 kmh 30.18 in1022.0 mb 0.00 in0.0 mm 0.00 in0.0 mm 0.00 in0.0 mm
09:46 PM 63.4°F17.4°C 47.5°F8.6°C 56% Calm Calm -- 30.18 in1022.0 mb 0.00 in0.0 mm 0.00 in0.0 mm 0.00 in0.0 mm
09:51 PM 63.4°F17.4°C 47.5°F8.6°C 56% Calm Calm -- 30.18 in1022.0 mb 0.00 in0.0 mm 0.00 in0.0 mm 0.00 in0.0 mm
09:56 PM 63.3°F17.4°C 47.4°F8.6°C 56% Calm Calm -- 30.18 in1022.0 mb 0.00 in0.0 mm 0.00 in0.0 mm 0.00 in0.0 mm
10:00 PM 63.1°F17.3°C 47.3°F8.5°C 56% Calm Calm -- 30.18 in1022.0 mb 0.00 in0.0 mm 0.00 in0.0 mm 0.00 in0.0 mm
10:05 PM 63.1°F17.3°C 47.3°F8.5°C 56% Calm Calm -- 30.18 in1022.0 mb 0.00 in0.0 mm 0.00 in0.0 mm 0.00 in0.0 mm
10:10 PM 63.1°F17.3°C 47.1°F8.4°C 56% Calm Calm -- 30.18 in1022.0 mb 0.00 in0.0 mm 0.00 in0.0 mm 0.00 in0.0 mm
10:15 PM 63.0°F17.2°C 47.2°F8.4°C 56% Calm Calm -- 30.18 in1022.0 mb 0.00 in0.0 mm 0.00 in0.0 mm 0.00 in0.0 mm
10:20 PM 62.9°F17.2°C 47.0°F8.3°C 56% Calm Calm -- 30.18 in1022.0 mb 0.00 in0.0 mm 0.00 in0.0 mm 0.00 in0.0 mm
10:25 PM 62.9°F17.2°C 47.1°F8.4°C 56% Calm Calm -- 30.18 in1022.0 mb 0.00 in0.0 mm 0.00 in0.0 mm 0.00 in0.0 mm
10:30 PM 62.9°F17.2°C 47.1°F8.4°C 56% Calm Calm -- 30.18 in1022.0 mb 0.00 in0.0 mm 0.00 in0.0 mm 0.00 in0.0 mm
10:35 PM 63.0°F17.2°C 47.1°F8.4°C 56% Calm Calm -- 30.18 in1022.0 mb 0.00 in0.0 mm 0.00 in0.0 mm 0.00 in0.0 mm
10:40 PM 63.0°F17.2°C 47.1°F8.4°C 56% Calm Calm -- 30.18 in1022.0 mb 0.00 in0.0 mm 0.00 in0.0 mm 0.00 in0.0 mm
10:45 PM 62.9°F17.2°C 47.0°F8.3°C 56% Calm Calm -- 30.18 in1022.0 mb 0.00 in0.0 mm 0.00 in0.0 mm 0.00 in0.0 mm
10:50 PM 63.0°F17.2°C 47.1°F8.4°C 56% Calm Calm -- 30.18 in1022.0 mb 0.00 in0.0 mm 0.00 in0.0 mm 0.00 in0.0 mm
10:55 PM 62.9°F17.2°C 47.1°F8.4°C 56% Calm Calm -- 30.18 in1022.0 mb 0.00 in0.0 mm 0.00 in0.0 mm 0.00 in0.0 mm
11:00 PM 62.8°F17.1°C 47.0°F8.3°C 56% Calm Calm -- 30.18 in1022.0 mb 0.00 in0.0 mm 0.00 in0.0 mm 0.00 in0.0 mm
11:05 PM 62.8°F17.1°C 47.0°F8.3°C 56% Calm Calm -- 30.18 in1022.0 mb 0.00 in0.0 mm 0.00 in0.0 mm 0.00 in0.0 mm
11:10 PM 62.6°F17.0°C 46.8°F8.2°C 56% Calm Calm -- 30.17 in1021.7 mb 0.00 in0.0 mm 0.00 in0.0 mm 0.00 in0.0 mm
11:15 PM 62.5°F16.9°C 46.7°F8.2°C 56% Calm Calm -- 30.17 in1021.7 mb 0.00 in0.0 mm 0.00 in0.0 mm 0.00 in0.0 mm
11:20 PM 62.7°F17.1°C 46.9°F8.3°C 56% Calm Calm 1.0 mph1.6 kmh 30.17 in1021.7 mb 0.00 in0.0 mm 0.00 in0.0 mm 0.00 in0.0 mm
11:25 PM 62.8°F17.1°C 47.0°F8.3°C 56% Calm Calm 1.0 mph1.6 kmh 30.17 in1021.7 mb 0.00 in0.0 mm 0.00 in0.0 mm 0.00 in0.0 mm
11:30 PM 63.0°F17.2°C 46.7°F8.2°C 55% Calm Calm 1.0 mph1.6 kmh 30.17 in1021.7 mb 0.00 in0.0 mm 0.00 in0.0 mm 0.00 in0.0 mm
11:35 PM 62.9°F17.2°C 46.6°F8.1°C 55% Calm Calm 1.0 mph1.6 kmh 30.17 in1021.7 mb 0.00 in0.0 mm 0.00 in0.0 mm 0.00 in0.0 mm
11:40 PM 62.8°F17.1°C 47.0°F8.3°C 56% Calm Calm -- 30.17 in1021.7 mb 0.00 in0.0 mm 0.00 in0.0 mm 0.00 in0.0 mm
11:45 PM 62.6°F17.0°C 46.8°F8.2°C 56% Calm Calm -- 30.17 in1021.7 mb 0.00 in0.0 mm 0.00 in0.0 mm 0.00 in0.0 mm
11:50 PM 62.3°F16.8°C 47.0°F8.3°C 57% Calm Calm -- 30.17 in1021.7 mb 0.00 in0.0 mm 0.00 in0.0 mm 0.00 in0.0 mm
11:55 PM 61.9°F16.6°C 47.1°F8.4°C 58% Calm Calm -- 30.17 in1021.7 mb 0.00 in0.0 mm 0.00 in0.0 mm 0.00 in0.0 mm